sensor_id;sensor_type;location;lat;lon;timestamp;P1;durP1;ratioP1;P2;durP2;ratioP2
84297;SDS011;74466;51.188;3.242;2024-01-27T00:00:08;21.23;;;8.45;;
84297;SDS011;74466;51.188;3.242;2024-01-27T00:02:35;19.15;;;7.97;;
84297;SDS011;74466;51.188;3.242;2024-01-27T00:05:01;23.67;;;8.32;;
84297;SDS011;74466;51.188;3.242;2024-01-27T00:07:27;23.67;;;8.50;;
84297;SDS011;74466;51.188;3.242;2024-01-27T00:09:53;18.17;;;8.30;;
84297;SDS011;74466;51.188;3.242;2024-01-27T00:12:20;19.73;;;8.10;;
84297;SDS011;74466;51.188;3.242;2024-01-27T00:14:46;22.27;;;8.27;;
84297;SDS011;74466;51.188;3.242;2024-01-27T00:17:11;19.40;;;8.57;;
84297;SDS011;74466;51.188;3.242;2024-01-27T00:19:37;20.42;;;8.27;;
84297;SDS011;74466;51.188;3.242;2024-01-27T00:22:03;18.08;;;7.57;;
84297;SDS011;74466;51.188;3.242;2024-01-27T00:24:29;19.05;;;8.15;;
84297;SDS011;74466;51.188;3.242;2024-01-27T00:26:55;19.63;;;7.95;;
84297;SDS011;74466;51.188;3.242;2024-01-27T00:29:21;18.52;;;7.70;;
84297;SDS011;74466;51.188;3.242;2024-01-27T00:31:46;20.77;;;7.68;;
84297;SDS011;74466;51.188;3.242;2024-01-27T00:34:14;22.42;;;7.95;;
84297;SDS011;74466;51.188;3.242;2024-01-27T00:36:40;16.52;;;7.40;;
84297;SDS011;74466;51.188;3.242;2024-01-27T00:39:07;16.85;;;7.70;;
84297;SDS011;74466;51.188;3.242;2024-01-27T00:41:34;22.95;;;8.20;;
84297;SDS011;74466;51.188;3.242;2024-01-27T00:43:59;22.70;;;7.97;;
84297;SDS011;74466;51.188;3.242;2024-01-27T00:46:25;21.77;;;8.18;;
84297;SDS011;74466;51.188;3.242;2024-01-27T00:48:51;17.75;;;7.85;;
84297;SDS011;74466;51.188;3.242;2024-01-27T00:51:16;19.42;;;8.57;;
84297;SDS011;74466;51.188;3.242;2024-01-27T00:53:42;16.83;;;7.15;;
84297;SDS011;74466;51.188;3.242;2024-01-27T00:56:08;23.52;;;7.63;;
84297;SDS011;74466;51.188;3.242;2024-01-27T00:58:33;20.38;;;7.45;;
84297;SDS011;74466;51.188;3.242;2024-01-27T01:00:59;19.52;;;7.63;;
84297;SDS011;74466;51.188;3.242;2024-01-27T01:03:26;18.70;;;7.60;;
84297;SDS011;74466;51.188;3.242;2024-01-27T01:05:51;18.88;;;7.18;;
84297;SDS011;74466;51.188;3.242;2024-01-27T01:08:18;18.88;;;7.57;;
84297;SDS011;74466;51.188;3.242;2024-01-27T01:10:43;19.85;;;7.47;;
84297;SDS011;74466;51.188;3.242;2024-01-27T01:13:09;20.48;;;7.35;;
84297;SDS011;74466;51.188;3.242;2024-01-27T01:15:35;26.48;;;7.80;;
84297;SDS011;74466;51.188;3.242;2024-01-27T01:18:00;20.10;;;7.32;;
84297;SDS011;74466;51.188;3.242;2024-01-27T01:20:26;21.05;;;7.30;;
84297;SDS011;74466;51.188;3.242;2024-01-27T01:22:55;18.20;;;7.32;;
84297;SDS011;74466;51.188;3.242;2024-01-27T01:25:20;16.13;;;7.30;;
84297;SDS011;74466;51.188;3.242;2024-01-27T01:27:46;23.88;;;7.80;;
84297;SDS011;74466;51.188;3.242;2024-01-27T01:30:14;16.63;;;6.85;;
84297;SDS011;74466;51.188;3.242;2024-01-27T01:32:40;20.65;;;7.65;;
84297;SDS011;74466;51.188;3.242;2024-01-27T01:35:06;21.33;;;7.95;;
84297;SDS011;74466;51.188;3.242;2024-01-27T01:37:32;20.60;;;7.53;;
84297;SDS011;74466;51.188;3.242;2024-01-27T01:39:58;19.83;;;7.43;;
84297;SDS011;74466;51.188;3.242;2024-01-27T01:42:24;20.98;;;7.25;;
84297;SDS011;74466;51.188;3.242;2024-01-27T01:44:50;19.48;;;7.40;;
84297;SDS011;74466;51.188;3.242;2024-01-27T01:47:16;19.02;;;7.25;;
84297;SDS011;74466;51.188;3.242;2024-01-27T01:49:43;18.08;;;6.60;;
84297;SDS011;74466;51.188;3.242;2024-01-27T01:52:09;18.48;;;6.53;;
84297;SDS011;74466;51.188;3.242;2024-01-27T01:54:35;24.75;;;7.20;;
84297;SDS011;74466;51.188;3.242;2024-01-27T01:57:01;23.33;;;6.93;;
84297;SDS011;74466;51.188;3.242;2024-01-27T01:59:28;18.95;;;6.65;;
84297;SDS011;74466;51.188;3.242;2024-01-27T02:01:54;21.10;;;6.97;;
84297;SDS011;74466;51.188;3.242;2024-01-27T02:04:20;19.85;;;6.97;;
84297;SDS011;74466;51.188;3.242;2024-01-27T02:06:46;15.77;;;6.47;;
84297;SDS011;74466;51.188;3.242;2024-01-27T02:09:12;16.42;;;6.43;;
84297;SDS011;74466;51.188;3.242;2024-01-27T02:11:38;16.40;;;6.40;;
84297;SDS011;74466;51.188;3.242;2024-01-27T02:14:03;16.40;;;6.20;;
84297;SDS011;74466;51.188;3.242;2024-01-27T02:16:29;16.58;;;6.32;;
84297;SDS011;74466;51.188;3.242;2024-01-27T02:18:55;18.42;;;6.70;;
84297;SDS011;74466;51.188;3.242;2024-01-27T02:21:21;15.48;;;6.35;;
84297;SDS011;74466;51.188;3.242;2024-01-27T02:23:47;17.75;;;6.32;;
84297;SDS011;74466;51.188;3.242;2024-01-27T02:26:13;16.77;;;6.18;;
84297;SDS011;74466;51.188;3.242;2024-01-27T02:28:38;16.17;;;5.90;;
84297;SDS011;74466;51.188;3.242;2024-01-27T02:31:04;14.02;;;6.10;;
84297;SDS011;74466;51.188;3.242;2024-01-27T02:33:30;12.50;;;5.60;;
84297;SDS011;74466;51.188;3.242;2024-01-27T02:35:55;17.67;;;6.95;;
84297;SDS011;74466;51.188;3.242;2024-01-27T02:38:21;16.95;;;6.38;;
84297;SDS011;74466;51.188;3.242;2024-01-27T02:40:47;14.95;;;6.43;;
84297;SDS011;74466;51.188;3.242;2024-01-27T02:43:13;18.38;;;6.30;;
84297;SDS011;74466;51.188;3.242;2024-01-27T02:45:39;13.52;;;5.57;;
84297;SDS011;74466;51.188;3.242;2024-01-27T02:48:04;16.75;;;6.32;;
84297;SDS011;74466;51.188;3.242;2024-01-27T02:50:30;18.17;;;5.95;;
84297;SDS011;74466;51.188;3.242;2024-01-27T02:52:56;14.23;;;6.20;;
84297;SDS011;74466;51.188;3.242;2024-01-27T02:55:22;18.85;;;6.15;;
84297;SDS011;74466;51.188;3.242;2024-01-27T02:57:47;14.13;;;6.05;;
84297;SDS011;74466;51.188;3.242;2024-01-27T03:00:13;15.25;;;6.15;;
84297;SDS011;74466;51.188;3.242;2024-01-27T03:02:39;14.43;;;5.82;;
84297;SDS011;74466;51.188;3.242;2024-01-27T03:05:05;17.02;;;6.53;;
84297;SDS011;74466;51.188;3.242;2024-01-27T03:07:31;15.82;;;6.10;;
84297;SDS011;74466;51.188;3.242;2024-01-27T03:09:57;14.85;;;5.97;;
84297;SDS011;74466;51.188;3.242;2024-01-27T03:12:22;14.38;;;6.45;;
84297;SDS011;74466;51.188;3.242;2024-01-27T03:14:48;17.13;;;6.40;;
84297;SDS011;74466;51.188;3.242;2024-01-27T03:17:14;15.85;;;5.70;;
84297;SDS011;74466;51.188;3.242;2024-01-27T03:19:40;13.02;;;5.60;;
84297;SDS011;74466;51.188;3.242;2024-01-27T03:22:07;15.23;;;6.13;;
84297;SDS011;74466;51.188;3.242;2024-01-27T03:24:32;18.67;;;6.15;;
84297;SDS011;74466;51.188;3.242;2024-01-27T03:26:58;15.88;;;6.10;;
84297;SDS011;74466;51.188;3.242;2024-01-27T03:29:24;15.70;;;6.30;;
84297;SDS011;74466;51.188;3.242;2024-01-27T03:31:49;20.17;;;6.45;;
84297;SDS011;74466;51.188;3.242;2024-01-27T03:34:15;17.52;;;6.18;;
84297;SDS011;74466;51.188;3.242;2024-01-27T03:36:43;16.33;;;6.10;;
84297;SDS011;74466;51.188;3.242;2024-01-27T03:39:13;15.98;;;5.88;;
84297;SDS011;74466;51.188;3.242;2024-01-27T03:41:38;15.85;;;5.72;;
84297;SDS011;74466;51.188;3.242;2024-01-27T03:44:04;16.15;;;5.95;;
84297;SDS011;74466;51.188;3.242;2024-01-27T03:46:30;18.15;;;6.53;;
84297;SDS011;74466;51.188;3.242;2024-01-27T03:48:55;19.08;;;6.80;;
84297;SDS011;74466;51.188;3.242;2024-01-27T03:51:21;18.17;;;5.88;;
84297;SDS011;74466;51.188;3.242;2024-01-27T03:53:48;14.93;;;6.35;;
84297;SDS011;74466;51.188;3.242;2024-01-27T03:56:13;16.42;;;6.03;;
84297;SDS011;74466;51.188;3.242;2024-01-27T03:58:39;21.25;;;6.78;;
84297;SDS011;74466;51.188;3.242;2024-01-27T04:01:06;16.70;;;6.15;;
84297;SDS011;74466;51.188;3.242;2024-01-27T04:03:31;16.27;;;5.63;;
84297;SDS011;74466;51.188;3.242;2024-01-27T04:05:57;18.10;;;6.18;;
84297;SDS011;74466;51.188;3.242;2024-01-27T04:08:23;17.83;;;5.90;;
84297;SDS011;74466;51.188;3.242;2024-01-27T04:10:48;14.18;;;5.30;;
84297;SDS011;74466;51.188;3.242;2024-01-27T04:13:15;15.48;;;5.72;;
84297;SDS011;74466;51.188;3.242;2024-01-27T04:15:40;14.80;;;5.85;;
84297;SDS011;74466;51.188;3.242;2024-01-27T04:18:06;15.38;;;6.03;;
84297;SDS011;74466;51.188;3.242;2024-01-27T04:20:33;15.30;;;6.55;;
84297;SDS011;74466;51.188;3.242;2024-01-27T04:23:00;19.48;;;6.50;;
84297;SDS011;74466;51.188;3.242;2024-01-27T04:25:26;17.90;;;6.30;;
84297;SDS011;74466;51.188;3.242;2024-01-27T04:27:51;15.00;;;6.32;;
84297;SDS011;74466;51.188;3.242;2024-01-27T04:30:18;17.20;;;5.97;;
84297;SDS011;74466;51.188;3.242;2024-01-27T04:32:43;12.60;;;5.38;;
84297;SDS011;74466;51.188;3.242;2024-01-27T04:35:09;11.95;;;5.25;;
84297;SDS011;74466;51.188;3.242;2024-01-27T04:37:36;13.88;;;5.80;;
84297;SDS011;74466;51.188;3.242;2024-01-27T04:40:03;14.88;;;6.25;;
84297;SDS011;74466;51.188;3.242;2024-01-27T04:42:31;20.48;;;5.65;;
84297;SDS011;74466;51.188;3.242;2024-01-27T04:45:00;12.27;;;5.22;;
84297;SDS011;74466;51.188;3.242;2024-01-27T04:47:26;15.95;;;5.65;;
84297;SDS011;74466;51.188;3.242;2024-01-27T04:49:52;13.55;;;5.57;;
84297;SDS011;74466;51.188;3.242;2024-01-27T04:52:18;12.52;;;5.28;;
84297;SDS011;74466;51.188;3.242;2024-01-27T04:54:44;12.02;;;5.32;;
84297;SDS011;74466;51.188;3.242;2024-01-27T04:57:10;12.27;;;5.30;;
84297;SDS011;74466;51.188;3.242;2024-01-27T04:59:36;17.05;;;5.78;;
84297;SDS011;74466;51.188;3.242;2024-01-27T05:02:02;13.98;;;5.40;;
84297;SDS011;74466;51.188;3.242;2024-01-27T05:04:27;15.82;;;5.68;;
84297;SDS011;74466;51.188;3.242;2024-01-27T05:06:53;15.55;;;5.53;;
84297;SDS011;74466;51.188;3.242;2024-01-27T05:09:19;13.52;;;5.30;;
84297;SDS011;74466;51.188;3.242;2024-01-27T05:11:44;14.80;;;5.88;;
84297;SDS011;74466;51.188;3.242;2024-01-27T05:14:10;14.40;;;5.60;;
84297;SDS011;74466;51.188;3.242;2024-01-27T05:16:37;13.70;;;5.88;;
84297;SDS011;74466;51.188;3.242;2024-01-27T05:19:02;17.00;;;5.55;;
84297;SDS011;74466;51.188;3.242;2024-01-27T05:21:29;14.95;;;5.90;;
84297;SDS011;74466;51.188;3.242;2024-01-27T05:23:54;15.15;;;5.45;;
84297;SDS011;74466;51.188;3.242;2024-01-27T05:26:20;11.75;;;5.35;;
84297;SDS011;74466;51.188;3.242;2024-01-27T05:28:46;16.92;;;6.25;;
84297;SDS011;74466;51.188;3.242;2024-01-27T05:31:12;12.57;;;5.75;;
84297;SDS011;74466;51.188;3.242;2024-01-27T05:33:38;14.05;;;6.05;;
84297;SDS011;74466;51.188;3.242;2024-01-27T05:36:07;18.92;;;5.93;;
84297;SDS011;74466;51.188;3.242;2024-01-27T05:38:33;18.48;;;6.50;;
84297;SDS011;74466;51.188;3.242;2024-01-27T05:41:02;15.20;;;5.88;;
84297;SDS011;74466;51.188;3.242;2024-01-27T05:43:28;14.77;;;5.85;;
84297;SDS011;74466;51.188;3.242;2024-01-27T05:45:53;17.48;;;7.15;;
84297;SDS011;74466;51.188;3.242;2024-01-27T05:48:20;16.45;;;6.85;;
84297;SDS011;74466;51.188;3.242;2024-01-27T05:50:54;13.57;;;5.90;;
84297;SDS011;74466;51.188;3.242;2024-01-27T05:53:21;12.15;;;5.90;;
84297;SDS011;74466;51.188;3.242;2024-01-27T05:55:47;16.63;;;6.35;;
84297;SDS011;74466;51.188;3.242;2024-01-27T05:58:13;12.80;;;5.53;;
84297;SDS011;74466;51.188;3.242;2024-01-27T06:00:38;15.75;;;6.28;;
84297;SDS011;74466;51.188;3.242;2024-01-27T06:03:05;17.27;;;5.90;;
84297;SDS011;74466;51.188;3.242;2024-01-27T06:05:31;17.65;;;5.90;;
84297;SDS011;74466;51.188;3.242;2024-01-27T06:07:56;13.35;;;6.10;;
84297;SDS011;74466;51.188;3.242;2024-01-27T06:10:22;19.10;;;6.38;;
84297;SDS011;74466;51.188;3.242;2024-01-27T06:12:49;19.17;;;6.57;;
84297;SDS011;74466;51.188;3.242;2024-01-27T06:15:15;16.17;;;6.18;;
84297;SDS011;74466;51.188;3.242;2024-01-27T06:17:41;17.00;;;6.38;;
84297;SDS011;74466;51.188;3.242;2024-01-27T06:20:08;19.77;;;6.43;;
84297;SDS011;74466;51.188;3.242;2024-01-27T06:22:34;16.52;;;6.40;;
84297;SDS011;74466;51.188;3.242;2024-01-27T06:24:59;16.65;;;6.15;;
84297;SDS011;74466;51.188;3.242;2024-01-27T06:27:25;15.75;;;5.80;;
84297;SDS011;74466;51.188;3.242;2024-01-27T06:29:51;19.40;;;6.90;;
84297;SDS011;74466;51.188;3.242;2024-01-27T06:32:17;16.23;;;6.40;;
84297;SDS011;74466;51.188;3.242;2024-01-27T06:34:42;15.35;;;6.03;;
84297;SDS011;74466;51.188;3.242;2024-01-27T06:37:08;19.33;;;7.28;;
84297;SDS011;74466;51.188;3.242;2024-01-27T06:39:34;12.60;;;5.82;;
84297;SDS011;74466;51.188;3.242;2024-01-27T06:42:00;18.58;;;7.40;;
84297;SDS011;74466;51.188;3.242;2024-01-27T06:44:26;15.45;;;6.53;;
84297;SDS011;74466;51.188;3.242;2024-01-27T06:46:51;17.83;;;6.68;;
84297;SDS011;74466;51.188;3.242;2024-01-27T06:49:17;19.67;;;6.50;;
84297;SDS011;74466;51.188;3.242;2024-01-27T06:51:43;16.13;;;6.60;;
84297;SDS011;74466;51.188;3.242;2024-01-27T06:54:09;14.63;;;6.85;;
84297;SDS011;74466;51.188;3.242;2024-01-27T06:56:35;17.98;;;6.68;;
84297;SDS011;74466;51.188;3.242;2024-01-27T06:59:01;17.75;;;6.22;;
84297;SDS011;74466;51.188;3.242;2024-01-27T07:01:27;19.98;;;6.85;;
84297;SDS011;74466;51.188;3.242;2024-01-27T07:03:53;17.23;;;6.85;;
84297;SDS011;74466;51.188;3.242;2024-01-27T07:06:18;16.40;;;7.53;;
84297;SDS011;74466;51.188;3.242;2024-01-27T07:08:44;15.50;;;6.53;;
84297;SDS011;74466;51.188;3.242;2024-01-27T07:11:10;14.77;;;6.63;;
84297;SDS011;74466;51.188;3.242;2024-01-27T07:13:35;14.73;;;6.88;;
84297;SDS011;74466;51.188;3.242;2024-01-27T07:16:01;17.48;;;6.78;;
84297;SDS011;74466;51.188;3.242;2024-01-27T07:18:27;19.10;;;6.57;;
84297;SDS011;74466;51.188;3.242;2024-01-27T07:20:54;17.85;;;7.00;;
84297;SDS011;74466;51.188;3.242;2024-01-27T07:23:20;22.25;;;7.50;;
84297;SDS011;74466;51.188;3.242;2024-01-27T07:25:45;23.20;;;8.15;;
84297;SDS011;74466;51.188;3.242;2024-01-27T07:28:11;20.90;;;8.15;;
84297;SDS011;74466;51.188;3.242;2024-01-27T07:30:37;22.02;;;7.82;;
84297;SDS011;74466;51.188;3.242;2024-01-27T07:33:03;23.58;;;8.20;;
84297;SDS011;74466;51.188;3.242;2024-01-27T07:35:29;20.48;;;7.75;;
84297;SDS011;74466;51.188;3.242;2024-01-27T07:37:56;21.50;;;8.48;;
84297;SDS011;74466;51.188;3.242;2024-01-27T07:40:23;23.00;;;8.50;;
84297;SDS011;74466;51.188;3.242;2024-01-27T07:42:48;26.02;;;8.55;;
84297;SDS011;74466;51.188;3.242;2024-01-27T07:45:14;25.88;;;9.30;;
84297;SDS011;74466;51.188;3.242;2024-01-27T07:47:40;24.27;;;9.07;;
84297;SDS011;74466;51.188;3.242;2024-01-27T07:50:06;21.52;;;9.23;;
84297;SDS011;74466;51.188;3.242;2024-01-27T07:52:34;19.95;;;8.95;;
84297;SDS011;74466;51.188;3.242;2024-01-27T07:55:00;20.10;;;8.57;;
84297;SDS011;74466;51.188;3.242;2024-01-27T07:57:27;25.45;;;8.98;;
84297;SDS011;74466;51.188;3.242;2024-01-27T07:59:53;23.52;;;8.10;;
84297;SDS011;74466;51.188;3.242;2024-01-27T08:02:19;24.95;;;9.10;;
84297;SDS011;74466;51.188;3.242;2024-01-27T08:04:45;25.55;;;9.48;;
84297;SDS011;74466;51.188;3.242;2024-01-27T08:07:11;27.88;;;9.32;;
84297;SDS011;74466;51.188;3.242;2024-01-27T08:09:39;24.02;;;8.73;;
84297;SDS011;74466;51.188;3.242;2024-01-27T08:12:05;21.33;;;9.27;;
84297;SDS011;74466;51.188;3.242;2024-01-27T08:14:32;25.45;;;9.90;;
84297;SDS011;74466;51.188;3.242;2024-01-27T08:17:01;23.58;;;8.63;;
84297;SDS011;74466;51.188;3.242;2024-01-27T08:19:28;21.80;;;10.05;;
84297;SDS011;74466;51.188;3.242;2024-01-27T08:21:54;24.77;;;8.98;;
84297;SDS011;74466;51.188;3.242;2024-01-27T08:24:20;29.40;;;9.73;;
84297;SDS011;74466;51.188;3.242;2024-01-27T08:26:47;23.80;;;8.88;;
84297;SDS011;74466;51.188;3.242;2024-01-27T08:29:13;27.80;;;10.25;;
84297;SDS011;74466;51.188;3.242;2024-01-27T08:31:39;28.85;;;9.95;;
84297;SDS011;74466;51.188;3.242;2024-01-27T08:34:05;24.88;;;9.38;;
84297;SDS011;74466;51.188;3.242;2024-01-27T08:36:30;26.85;;;10.38;;
84297;SDS011;74466;51.188;3.242;2024-01-27T08:38:57;28.10;;;10.35;;
84297;SDS011;74466;51.188;3.242;2024-01-27T08:41:23;31.45;;;10.23;;
84297;SDS011;74466;51.188;3.242;2024-01-27T08:43:49;28.70;;;11.13;;
84297;SDS011;74466;51.188;3.242;2024-01-27T08:46:15;24.27;;;10.80;;
84297;SDS011;74466;51.188;3.242;2024-01-27T08:48:42;25.80;;;9.85;;
84297;SDS011;74466;51.188;3.242;2024-01-27T08:51:09;25.27;;;10.00;;
84297;SDS011;74466;51.188;3.242;2024-01-27T08:53:35;26.33;;;11.63;;
84297;SDS011;74466;51.188;3.242;2024-01-27T08:56:01;27.48;;;11.10;;
84297;SDS011;74466;51.188;3.242;2024-01-27T08:58:27;26.35;;;10.93;;
84297;SDS011;74466;51.188;3.242;2024-01-27T09:00:53;28.50;;;11.85;;
84297;SDS011;74466;51.188;3.242;2024-01-27T09:03:19;48.83;;;18.25;;
84297;SDS011;74466;51.188;3.242;2024-01-27T09:05:47;53.75;;;20.33;;
84297;SDS011;74466;51.188;3.242;2024-01-27T09:08:13;54.85;;;22.13;;
84297;SDS011;74466;51.188;3.242;2024-01-27T09:10:38;53.00;;;20.55;;
84297;SDS011;74466;51.188;3.242;2024-01-27T09:13:04;36.50;;;13.40;;
84297;SDS011;74466;51.188;3.242;2024-01-27T09:15:30;33.38;;;12.60;;
84297;SDS011;74466;51.188;3.242;2024-01-27T09:17:56;32.65;;;13.05;;
84297;SDS011;74466;51.188;3.242;2024-01-27T09:20:22;30.40;;;12.32;;
84297;SDS011;74466;51.188;3.242;2024-01-27T09:22:48;32.05;;;11.65;;
84297;SDS011;74466;51.188;3.242;2024-01-27T09:25:15;28.80;;;11.60;;
84297;SDS011;74466;51.188;3.242;2024-01-27T09:27:41;26.55;;;11.85;;
84297;SDS011;74466;51.188;3.242;2024-01-27T09:30:07;25.30;;;11.00;;
84297;SDS011;74466;51.188;3.242;2024-01-27T09:32:33;24.77;;;10.88;;
84297;SDS011;74466;51.188;3.242;2024-01-27T09:34:59;29.35;;;11.15;;
84297;SDS011;74466;51.188;3.242;2024-01-27T09:37:25;31.73;;;11.85;;
84297;SDS011;74466;51.188;3.242;2024-01-27T09:39:51;25.88;;;11.35;;
84297;SDS011;74466;51.188;3.242;2024-01-27T09:42:17;27.25;;;10.65;;
84297;SDS011;74466;51.188;3.242;2024-01-27T09:44:47;25.73;;;11.10;;
84297;SDS011;74466;51.188;3.242;2024-01-27T09:47:17;24.77;;;10.45;;
84297;SDS011;74466;51.188;3.242;2024-01-27T09:49:44;24.85;;;10.57;;
84297;SDS011;74466;51.188;3.242;2024-01-27T09:52:11;24.60;;;10.88;;
84297;SDS011;74466;51.188;3.242;2024-01-27T09:54:36;28.73;;;10.90;;
84297;SDS011;74466;51.188;3.242;2024-01-27T09:57:02;25.45;;;10.88;;
84297;SDS011;74466;51.188;3.242;2024-01-27T09:59:28;22.67;;;10.50;;
84297;SDS011;74466;51.188;3.242;2024-01-27T10:01:56;31.33;;;10.43;;
84297;SDS011;74466;51.188;3.242;2024-01-27T10:04:23;23.65;;;10.25;;
84297;SDS011;74466;51.188;3.242;2024-01-27T10:06:50;24.98;;;10.27;;
84297;SDS011;74466;51.188;3.242;2024-01-27T10:09:16;25.08;;;10.45;;
84297;SDS011;74466;51.188;3.242;2024-01-27T10:11:45;26.88;;;10.63;;
84297;SDS011;74466;51.188;3.242;2024-01-27T10:14:14;23.35;;;9.27;;
84297;SDS011;74466;51.188;3.242;2024-01-27T10:16:40;25.67;;;9.65;;
84297;SDS011;74466;51.188;3.242;2024-01-27T10:19:11;21.83;;;8.98;;
84297;SDS011;74466;51.188;3.242;2024-01-27T10:21:47;21.58;;;9.38;;
84297;SDS011;74466;51.188;3.242;2024-01-27T10:24:13;20.50;;;8.82;;
84297;SDS011;74466;51.188;3.242;2024-01-27T10:26:39;26.30;;;8.70;;
84297;SDS011;74466;51.188;3.242;2024-01-27T10:29:05;22.13;;;8.85;;
84297;SDS011;74466;51.188;3.242;2024-01-27T10:31:33;22.70;;;7.95;;
84297;SDS011;74466;51.188;3.242;2024-01-27T10:34:00;24.02;;;8.27;;
84297;SDS011;74466;51.188;3.242;2024-01-27T10:36:40;21.25;;;8.35;;
84297;SDS011;74466;51.188;3.242;2024-01-27T10:39:16;18.67;;;8.05;;
84297;SDS011;74466;51.188;3.242;2024-01-27T10:41:47;20.45;;;8.43;;
84297;SDS011;74466;51.188;3.242;2024-01-27T10:44:15;20.55;;;9.07;;
84297;SDS011;74466;51.188;3.242;2024-01-27T10:46:45;23.05;;;8.25;;
84297;SDS011;74466;51.188;3.242;2024-01-27T10:49:13;21.63;;;8.23;;
84297;SDS011;74466;51.188;3.242;2024-01-27T10:51:45;21.40;;;8.13;;
84297;SDS011;74466;51.188;3.242;2024-01-27T10:54:24;24.27;;;8.93;;
84297;SDS011;74466;51.188;3.242;2024-01-27T10:56:53;18.60;;;8.75;;
84297;SDS011;74466;51.188;3.242;2024-01-27T10:59:21;22.88;;;9.57;;
84297;SDS011;74466;51.188;3.242;2024-01-27T11:01:48;25.35;;;9.85;;
84297;SDS011;74466;51.188;3.242;2024-01-27T11:04:18;23.20;;;8.80;;
84297;SDS011;74466;51.188;3.242;2024-01-27T11:06:47;21.38;;;8.55;;
84297;SDS011;74466;51.188;3.242;2024-01-27T11:09:13;24.80;;;8.48;;
84297;SDS011;74466;51.188;3.242;2024-01-27T11:11:42;24.65;;;8.95;;
84297;SDS011;74466;51.188;3.242;2024-01-27T11:14:09;24.30;;;8.57;;
84297;SDS011;74466;51.188;3.242;2024-01-27T11:16:36;22.15;;;9.10;;
84297;SDS011;74466;51.188;3.242;2024-01-27T11:19:09;21.05;;;8.90;;
84297;SDS011;74466;51.188;3.242;2024-01-27T11:21:39;25.00;;;8.77;;
84297;SDS011;74466;51.188;3.242;2024-01-27T11:24:17;21.42;;;8.45;;
84297;SDS011;74466;51.188;3.242;2024-01-27T11:26:44;19.10;;;8.27;;
84297;SDS011;74466;51.188;3.242;2024-01-27T11:29:09;20.42;;;7.93;;
84297;SDS011;74466;51.188;3.242;2024-01-27T11:31:44;21.08;;;8.20;;
84297;SDS011;74466;51.188;3.242;2024-01-27T11:34:10;23.23;;;8.23;;
84297;SDS011;74466;51.188;3.242;2024-01-27T11:36:43;19.58;;;8.10;;
84297;SDS011;74466;51.188;3.242;2024-01-27T11:39:28;24.65;;;8.70;;
84297;SDS011;74466;51.188;3.242;2024-01-27T11:42:04;17.95;;;7.43;;
84297;SDS011;74466;51.188;3.242;2024-01-27T11:44:33;21.08;;;7.53;;
84297;SDS011;74466;51.188;3.242;2024-01-27T11:47:02;23.65;;;7.75;;
84297;SDS011;74466;51.188;3.242;2024-01-27T11:49:28;20.10;;;6.97;;
84297;SDS011;74466;51.188;3.242;2024-01-27T11:51:53;20.90;;;6.97;;
84297;SDS011;74466;51.188;3.242;2024-01-27T11:54:20;17.48;;;7.13;;
84297;SDS011;74466;51.188;3.242;2024-01-27T11:56:45;20.83;;;6.95;;
84297;SDS011;74466;51.188;3.242;2024-01-27T11:59:11;23.33;;;7.10;;
84297;SDS011;74466;51.188;3.242;2024-01-27T12:01:39;18.00;;;7.10;;
84297;SDS011;74466;51.188;3.242;2024-01-27T12:04:04;21.05;;;7.68;;
84297;SDS011;74466;51.188;3.242;2024-01-27T12:06:30;23.10;;;8.77;;
84297;SDS011;74466;51.188;3.242;2024-01-27T12:08:56;24.60;;;8.90;;
84297;SDS011;74466;51.188;3.242;2024-01-27T12:11:25;19.60;;;7.63;;
84297;SDS011;74466;51.188;3.242;2024-01-27T12:13:51;18.13;;;7.85;;
84297;SDS011;74466;51.188;3.242;2024-01-27T12:16:17;24.67;;;8.07;;
84297;SDS011;74466;51.188;3.242;2024-01-27T12:18:44;22.45;;;8.15;;
84297;SDS011;74466;51.188;3.242;2024-01-27T12:21:10;20.95;;;7.82;;
84297;SDS011;74466;51.188;3.242;2024-01-27T12:23:36;26.15;;;8.68;;
84297;SDS011;74466;51.188;3.242;2024-01-27T12:26:14;21.63;;;7.45;;
84297;SDS011;74466;51.188;3.242;2024-01-27T12:28:39;22.85;;;7.22;;
84297;SDS011;74466;51.188;3.242;2024-01-27T12:31:05;20.63;;;7.57;;
84297;SDS011;74466;51.188;3.242;2024-01-27T12:33:31;25.20;;;7.07;;
84297;SDS011;74466;51.188;3.242;2024-01-27T12:35:57;16.83;;;6.50;;
84297;SDS011;74466;51.188;3.242;2024-01-27T12:38:22;19.67;;;6.55;;
84297;SDS011;74466;51.188;3.242;2024-01-27T12:40:48;25.25;;;6.68;;
84297;SDS011;74466;51.188;3.242;2024-01-27T12:43:14;22.00;;;6.45;;
84297;SDS011;74466;51.188;3.242;2024-01-27T12:45:40;18.27;;;5.80;;
84297;SDS011;74466;51.188;3.242;2024-01-27T12:48:06;19.50;;;5.53;;
84297;SDS011;74466;51.188;3.242;2024-01-27T12:50:32;19.02;;;6.10;;
84297;SDS011;74466;51.188;3.242;2024-01-27T12:52:59;19.67;;;5.32;;
84297;SDS011;74466;51.188;3.242;2024-01-27T12:55:24;22.50;;;5.20;;
84297;SDS011;74466;51.188;3.242;2024-01-27T12:57:50;17.83;;;4.65;;
84297;SDS011;74466;51.188;3.242;2024-01-27T13:00:16;18.85;;;4.90;;
84297;SDS011;74466;51.188;3.242;2024-01-27T13:02:42;17.90;;;4.82;;
84297;SDS011;74466;51.188;3.242;2024-01-27T13:05:08;17.75;;;4.88;;
84297;SDS011;74466;51.188;3.242;2024-01-27T13:07:34;17.63;;;4.60;;
84297;SDS011;74466;51.188;3.242;2024-01-27T13:10:00;18.67;;;4.63;;
84297;SDS011;74466;51.188;3.242;2024-01-27T13:12:26;16.77;;;4.65;;
84297;SDS011;74466;51.188;3.242;2024-01-27T13:14:52;16.85;;;4.63;;
84297;SDS011;74466;51.188;3.242;2024-01-27T13:17:17;17.67;;;4.88;;
84297;SDS011;74466;51.188;3.242;2024-01-27T13:19:44;16.40;;;4.75;;
84297;SDS011;74466;51.188;3.242;2024-01-27T13:22:10;18.52;;;4.97;;
84297;SDS011;74466;51.188;3.242;2024-01-27T13:24:37;17.35;;;4.50;;
84297;SDS011;74466;51.188;3.242;2024-01-27T13:27:03;20.13;;;5.00;;
84297;SDS011;74466;51.188;3.242;2024-01-27T13:29:30;18.70;;;4.72;;
84297;SDS011;74466;51.188;3.242;2024-01-27T13:31:57;15.18;;;4.32;;
84297;SDS011;74466;51.188;3.242;2024-01-27T13:34:26;17.25;;;4.20;;
84297;SDS011;74466;51.188;3.242;2024-01-27T13:36:55;13.98;;;4.10;;
84297;SDS011;74466;51.188;3.242;2024-01-27T13:39:22;18.00;;;4.55;;
84297;SDS011;74466;51.188;3.242;2024-01-27T13:41:47;17.50;;;4.35;;
84297;SDS011;74466;51.188;3.242;2024-01-27T13:44:14;19.30;;;5.18;;
84297;SDS011;74466;51.188;3.242;2024-01-27T13:46:39;15.18;;;4.80;;
84297;SDS011;74466;51.188;3.242;2024-01-27T13:49:05;15.52;;;4.50;;
84297;SDS011;74466;51.188;3.242;2024-01-27T13:51:31;18.27;;;3.70;;
84297;SDS011;74466;51.188;3.242;2024-01-27T13:53:56;13.68;;;3.80;;
84297;SDS011;74466;51.188;3.242;2024-01-27T13:56:22;19.25;;;3.75;;
84297;SDS011;74466;51.188;3.242;2024-01-27T13:58:48;17.55;;;3.63;;
84297;SDS011;74466;51.188;3.242;2024-01-27T14:01:14;17.00;;;3.80;;
84297;SDS011;74466;51.188;3.242;2024-01-27T14:03:40;14.27;;;3.28;;
84297;SDS011;74466;51.188;3.242;2024-01-27T14:06:06;15.70;;;3.75;;
84297;SDS011;74466;51.188;3.242;2024-01-27T14:08:36;18.42;;;3.63;;
84297;SDS011;74466;51.188;3.242;2024-01-27T14:11:03;13.55;;;3.70;;
84297;SDS011;74466;51.188;3.242;2024-01-27T14:13:28;16.23;;;3.55;;
84297;SDS011;74466;51.188;3.242;2024-01-27T14:15:54;12.07;;;3.92;;
84297;SDS011;74466;51.188;3.242;2024-01-27T14:18:20;14.18;;;4.20;;
84297;SDS011;74466;51.188;3.242;2024-01-27T14:20:46;15.32;;;4.35;;
84297;SDS011;74466;51.188;3.242;2024-01-27T14:23:13;16.88;;;4.50;;
84297;SDS011;74466;51.188;3.242;2024-01-27T14:25:40;16.98;;;4.32;;
84297;SDS011;74466;51.188;3.242;2024-01-27T14:28:05;14.38;;;4.32;;